sensor_id;sensor_type;location;lat;lon;timestamp;pressure;altitude;pressure_sealevel;temperature;humidity
10474;BME280;5284;50.446;7.904;2022-12-18T00:01:56;99649.06;;;-8.43;100.00
10474;BME280;5284;50.446;7.904;2022-12-18T00:07:01;99649.03;;;-8.46;100.00
10474;BME280;5284;50.446;7.904;2022-12-18T00:12:04;99645.56;;;-8.48;100.00
10474;BME280;5284;50.446;7.904;2022-12-18T00:17:17;99655.03;;;-8.50;100.00
10474;BME280;5284;50.446;7.904;2022-12-18T00:22:20;99653.28;;;-8.51;100.00
10474;BME280;5284;50.446;7.904;2022-12-18T00:27:23;99654.16;;;-8.51;100.00
10474;BME280;5284;50.446;7.904;2022-12-18T00:32:27;99666.16;;;-8.59;100.00
10474;BME280;5284;50.446;7.904;2022-12-18T00:37:30;99654.00;;;-8.70;100.00
10474;BME280;5284;50.446;7.904;2022-12-18T00:42:34;99642.88;;;-8.62;100.00
10474;BME280;5284;50.446;7.904;2022-12-18T00:47:56;99654.06;;;-8.61;100.00
10474;BME280;5284;50.446;7.904;2022-12-18T00:52:59;99655.81;;;-8.62;100.00
10474;BME280;5284;50.446;7.904;2022-12-18T00:58:02;99673.00;;;-8.65;100.00
10474;BME280;5284;50.446;7.904;2022-12-18T01:03:06;99673.00;;;-8.65;100.00
10474;BME280;5284;50.446;7.904;2022-12-18T01:08:11;99664.31;;;-8.73;100.00
10474;BME280;5284;50.446;7.904;2022-12-18T01:13:16;99674.69;;;-8.70;100.00
10474;BME280;5284;50.446;7.904;2022-12-18T01:18:23;99674.66;;;-8.72;100.00
10474;BME280;5284;50.446;7.904;2022-12-18T01:23:26;99664.28;;;-8.76;100.00
10474;BME280;5284;50.446;7.904;2022-12-18T01:28:29;99669.53;;;-8.67;100.00
10474;BME280;5284;50.446;7.904;2022-12-18T01:33:34;99667.78;;;-8.71;100.00
10474;BME280;5284;50.446;7.904;2022-12-18T01:38:37;99659.13;;;-8.76;100.00
10474;BME280;5284;50.446;7.904;2022-12-18T01:43:47;99659.94;;;-8.79;100.00
10474;BME280;5284;50.446;7.904;2022-12-18T01:48:53;99664.28;;;-8.79;100.00
10474;BME280;5284;50.446;7.904;2022-12-18T01:53:58;99678.06;;;-8.77;100.00
10474;BME280;5284;50.446;7.904;2022-12-18T01:59:03;99672.00;;;-8.81;100.00
10474;BME280;5284;50.446;7.904;2022-12-18T02:04:21;99671.94;;;-8.87;100.00
10474;BME280;5284;50.446;7.904;2022-12-18T02:09:28;99662.41;;;-8.92;100.00
10474;BME280;5284;50.446;7.904;2022-12-18T02:14:38;99656.31;;;-9.01;100.00
10474;BME280;5284;50.446;7.904;2022-12-18T02:19:58;99667.50;;;-9.01;100.00
10474;BME280;5284;50.446;7.904;2022-12-18T02:25:17;99657.94;;;-9.09;100.00
10474;BME280;5284;50.446;7.904;2022-12-18T02:30:27;99655.34;;;-9.14;100.00
10474;BME280;5284;50.446;7.904;2022-12-18T02:35:32;99651.03;;;-9.10;100.00
10474;BME280;5284;50.446;7.904;2022-12-18T02:40:38;99651.94;;;-9.10;100.00
10474;BME280;5284;50.446;7.904;2022-12-18T02:45:47;99665.66;;;-9.12;100.00
10474;BME280;5284;50.446;7.904;2022-12-18T02:50:57;99656.19;;;-9.15;100.00
10474;BME280;5284;50.446;7.904;2022-12-18T02:56:06;99657.06;;;-9.11;100.00
10474;BME280;5284;50.446;7.904;2022-12-18T03:01:17;99649.25;;;-9.17;100.00
10474;BME280;5284;50.446;7.904;2022-12-18T03:06:24;99662.06;;;-9.29;100.00
10474;BME280;5284;50.446;7.904;2022-12-18T03:11:32;99664.63;;;-9.28;100.00
10474;BME280;5284;50.446;7.904;2022-12-18T03:16:57;99646.53;;;-9.32;100.00
10474;BME280;5284;50.446;7.904;2022-12-18T03:22:03;99643.88;;;-9.38;100.00
10474;BME280;5284;50.446;7.904;2022-12-18T03:27:18;99653.34;;;-9.39;100.00
10474;BME280;5284;50.446;7.904;2022-12-18T03:32:28;99642.22;;;-9.33;100.00
10474;BME280;5284;50.446;7.904;2022-12-18T03:37:34;99644.72;;;-9.39;100.00
10474;BME280;5284;50.446;7.904;2022-12-18T03:42:45;99636.97;;;-9.41;100.00
10474;BME280;5284;50.446;7.904;2022-12-18T03:48:02;99636.97;;;-9.41;100.00
10474;BME280;5284;50.446;7.904;2022-12-18T03:53:19;99637.78;;;-9.43;100.00
10474;BME280;5284;50.446;7.904;2022-12-18T03:58:27;99632.59;;;-9.48;100.00
10474;BME280;5284;50.446;7.904;2022-12-18T04:03:46;99634.31;;;-9.50;100.00
10474;BME280;5284;50.446;7.904;2022-12-18T04:08:53;99614.44;;;-9.54;100.00
10474;BME280;5284;50.446;7.904;2022-12-18T04:13:59;99610.97;;;-9.60;100.00
10474;BME280;5284;50.446;7.904;2022-12-18T04:19:09;99610.97;;;-9.59;100.00
10474;BME280;5284;50.446;7.904;2022-12-18T04:24:15;99599.75;;;-9.61;100.00
10474;BME280;5284;50.446;7.904;2022-12-18T04:29:28;99605.81;;;-9.59;100.00
10474;BME280;5284;50.446;7.904;2022-12-18T04:34:32;99622.09;;;-9.63;100.00
10474;BME280;5284;50.446;7.904;2022-12-18T04:39:35;99622.09;;;-9.64;100.00
10474;BME280;5284;50.446;7.904;2022-12-18T04:44:43;99626.38;;;-9.66;100.00
10474;BME280;5284;50.446;7.904;2022-12-18T04:49:47;99635.75;;;-9.71;100.00
10474;BME280;5284;50.446;7.904;2022-12-18T04:54:50;99620.25;;;-9.76;100.00
10474;BME280;5284;50.446;7.904;2022-12-18T04:59:53;99616.72;;;-9.84;100.00
10474;BME280;5284;50.446;7.904;2022-12-18T05:04:57;99623.56;;;-9.84;100.00
10474;BME280;5284;50.446;7.904;2022-12-18T05:10:00;99619.19;;;-9.91;100.00
10474;BME280;5284;50.446;7.904;2022-12-18T05:15:03;99628.56;;;-9.98;100.00
10474;BME280;5284;50.446;7.904;2022-12-18T05:20:09;99631.97;;;-10.00;100.00
10474;BME280;5284;50.446;7.904;2022-12-18T05:25:12;99633.72;;;-10.02;100.00
10474;BME280;5284;50.446;7.904;2022-12-18T05:30:41;99622.47;;;-10.06;100.00
10474;BME280;5284;50.446;7.904;2022-12-18T05:43:13;99612.03;;;-10.16;100.00
10474;BME280;5284;50.446;7.904;2022-12-18T05:48:21;99611.19;;;-10.17;100.00
10474;BME280;5284;50.446;7.904;2022-12-18T05:53:24;99615.44;;;-10.19;100.00
10474;BME280;5284;50.446;7.904;2022-12-18T05:58:29;99612.78;;;-10.23;100.00
10474;BME280;5284;50.446;7.904;2022-12-18T06:03:32;99613.56;;;-10.30;100.00
10474;BME280;5284;50.446;7.904;2022-12-18T06:08:35;99608.38;;;-10.33;100.00
10474;BME280;5284;50.446;7.904;2022-12-18T06:13:49;99612.44;;;-10.48;100.00
10474;BME280;5284;50.446;7.904;2022-12-18T06:19:00;99632.22;;;-10.47;100.00
10474;BME280;5284;50.446;7.904;2022-12-18T06:24:03;99624.41;;;-10.53;100.00
10474;BME280;5284;50.446;7.904;2022-12-18T06:29:07;99639.72;;;-10.61;100.00
10474;BME280;5284;50.446;7.904;2022-12-18T06:34:10;99656.06;;;-10.59;100.00
10474;BME280;5284;50.446;7.904;2022-12-18T06:39:13;99650.00;;;-10.62;100.00
10474;BME280;5284;50.446;7.904;2022-12-18T06:44:18;99656.13;;;-10.56;100.00
10474;BME280;5284;50.446;7.904;2022-12-18T06:49:20;99645.00;;;-10.53;100.00
10474;BME280;5284;50.446;7.904;2022-12-18T06:54:30;99654.38;;;-10.55;100.00
10474;BME280;5284;50.446;7.904;2022-12-18T06:59:34;99663.88;;;-10.54;100.00
10474;BME280;5284;50.446;7.904;2022-12-18T07:04:37;99655.34;;;-10.50;100.00
10474;BME280;5284;50.446;7.904;2022-12-18T07:09:40;99661.44;;;-10.45;100.00
10474;BME280;5284;50.446;7.904;2022-12-18T07:14:44;99632.38;;;-10.35;100.00
10474;BME280;5284;50.446;7.904;2022-12-18T07:19:47;99634.78;;;-10.46;100.00
10474;BME280;5284;50.446;7.904;2022-12-18T07:24:50;99644.28;;;-10.43;100.00
10474;BME280;5284;50.446;7.904;2022-12-18T07:29:54;99647.84;;;-10.35;100.00
10474;BME280;5284;50.446;7.904;2022-12-18T07:34:57;99640.22;;;-10.27;100.00
10474;BME280;5284;50.446;7.904;2022-12-18T07:40:00;99645.38;;;-10.28;100.00
10474;BME280;5284;50.446;7.904;2022-12-18T07:45:06;99651.38;;;-10.28;100.00
10474;BME280;5284;50.446;7.904;2022-12-18T07:50:09;99655.88;;;-10.13;100.00
10474;BME280;5284;50.446;7.904;2022-12-18T07:55:12;99651.81;;;-9.92;100.00
10474;BME280;5284;50.446;7.904;2022-12-18T08:00:17;99663.13;;;-9.82;100.00
10474;BME280;5284;50.446;7.904;2022-12-18T08:05:21;99640.25;;;-9.55;100.00
10474;BME280;5284;50.446;7.904;2022-12-18T08:10:24;99646.44;;;-9.40;100.00
10474;BME280;5284;50.446;7.904;2022-12-18T08:15:29;99645.72;;;-9.28;100.00
10474;BME280;5284;50.446;7.904;2022-12-18T08:20:32;99648.59;;;-8.98;100.00
10474;BME280;5284;50.446;7.904;2022-12-18T08:25:35;99641.97;;;-8.68;100.00
10474;BME280;5284;50.446;7.904;2022-12-18T08:30:39;99627.53;;;-8.35;100.00
10474;BME280;5284;50.446;7.904;2022-12-18T08:35:42;99612.19;;;-8.06;100.00
10474;BME280;5284;50.446;7.904;2022-12-18T08:40:46;99608.91;;;-7.72;100.00
10474;BME280;5284;50.446;7.904;2022-12-18T08:45:50;99604.69;;;-7.41;100.00
10474;BME280;5284;50.446;7.904;2022-12-18T08:50:54;99596.09;;;-7.13;100.00
10474;BME280;5284;50.446;7.904;2022-12-18T08:55:57;99601.28;;;-6.84;100.00
10474;BME280;5284;50.446;7.904;2022-12-18T09:01:03;99599.56;;;-6.57;100.00
10474;BME280;5284;50.446;7.904;2022-12-18T09:06:07;99613.34;;;-6.28;100.00
10474;BME280;5284;50.446;7.904;2022-12-18T09:11:13;99613.31;;;-6.07;100.00
10474;BME280;5284;50.446;7.904;2022-12-18T09:16:17;99611.41;;;-5.68;100.00
10474;BME280;5284;50.446;7.904;2022-12-18T09:21:21;99618.16;;;-5.34;100.00
10474;BME280;5284;50.446;7.904;2022-12-18T09:26:25;99617.13;;;-5.06;100.00
10474;BME280;5284;50.446;7.904;2022-12-18T09:31:29;99614.38;;;-4.83;100.00
10474;BME280;5284;50.446;7.904;2022-12-18T09:36:32;99607.34;;;-4.71;100.00
10474;BME280;5284;50.446;7.904;2022-12-18T09:41:41;99625.53;;;-4.68;100.00
10474;BME280;5284;50.446;7.904;2022-12-18T09:46:50;99633.38;;;-4.72;100.00
10474;BME280;5284;50.446;7.904;2022-12-18T09:51:57;99628.09;;;-4.60;100.00
10474;BME280;5284;50.446;7.904;2022-12-18T09:57:03;99616.41;;;-4.16;100.00
10474;BME280;5284;50.446;7.904;2022-12-18T10:02:19;99597.13;;;-3.99;100.00
10474;BME280;5284;50.446;7.904;2022-12-18T10:07:29;99587.59;;;-4.00;100.00
10474;BME280;5284;50.446;7.904;2022-12-18T10:12:42;99590.13;;;-3.95;100.00
10474;BME280;5284;50.446;7.904;2022-12-18T10:17:54;99597.56;;;-3.61;100.00
10474;BME280;5284;50.446;7.904;2022-12-18T10:23:04;99596.69;;;-3.61;100.00
10474;BME280;5284;50.446;7.904;2022-12-18T10:28:14;99583.16;;;-3.90;100.00
10474;BME280;5284;50.446;7.904;2022-12-18T10:33:20;99587.22;;;-3.67;100.00
10474;BME280;5284;50.446;7.904;2022-12-18T10:38:26;99588.94;;;-3.66;100.00
10474;BME280;5284;50.446;7.904;2022-12-18T10:43:30;99579.47;;;-3.74;100.00
10474;BME280;5284;50.446;7.904;2022-12-18T10:48:39;99574.81;;;-3.50;100.00
10474;BME280;5284;50.446;7.904;2022-12-18T10:53:51;99578.38;;;-3.57;100.00
10474;BME280;5284;50.446;7.904;2022-12-18T10:59:00;99572.78;;;-3.28;100.00
10474;BME280;5284;50.446;7.904;2022-12-18T11:04:09;99558.75;;;-3.18;100.00
10474;BME280;5284;50.446;7.904;2022-12-18T11:09:20;99568.47;;;-2.75;100.00
10474;BME280;5284;50.446;7.904;2022-12-18T11:14:25;99555.59;;;-2.83;100.00
10474;BME280;5284;50.446;7.904;2022-12-18T11:19:33;99554.03;;;-2.96;100.00
10474;BME280;5284;50.446;7.904;2022-12-18T11:24:37;99562.59;;;-2.86;100.00
10474;BME280;5284;50.446;7.904;2022-12-18T11:29:40;99549.16;;;-2.64;100.00
10474;BME280;5284;50.446;7.904;2022-12-18T11:34:51;99552.25;;;-2.42;100.00
10474;BME280;5284;50.446;7.904;2022-12-18T11:40:03;99547.59;;;-2.72;100.00
10474;BME280;5284;50.446;7.904;2022-12-18T11:45:23;99556.97;;;-2.62;100.00
10474;BME280;5284;50.446;7.904;2022-12-18T11:50:33;99554.13;;;-2.49;100.00
10474;BME280;5284;50.446;7.904;2022-12-18T11:55:48;99557.88;;;-2.63;100.00
10474;BME280;5284;50.446;7.904;2022-12-18T12:00:56;99545.66;;;-2.61;100.00
10474;BME280;5284;50.446;7.904;2022-12-18T12:06:10;99535.09;;;-3.08;100.00
10474;BME280;5284;50.446;7.904;2022-12-18T12:11:25;99542.53;;;-2.83;100.00
10474;BME280;5284;50.446;7.904;2022-12-18T12:16:35;99541.66;;;-2.83;100.00
10474;BME280;5284;50.446;7.904;2022-12-18T12:21:47;99530.50;;;-2.93;100.00
10474;BME280;5284;50.446;7.904;2022-12-18T12:27:01;99527.66;;;-2.78;100.00
10474;BME280;5284;50.446;7.904;2022-12-18T12:32:17;99523.28;;;-2.77;100.00
10474;BME280;5284;50.446;7.904;2022-12-18T12:37:36;99524.09;;;-3.26;100.00
10474;BME280;5284;50.446;7.904;2022-12-18T12:42:46;99532.59;;;-3.14;100.00
10474;BME280;5284;50.446;7.904;2022-12-18T12:48:16;99529.94;;;-3.11;100.00
10474;BME280;5284;50.446;7.904;2022-12-18T12:53:26;99517.72;;;-3.07;100.00
10474;BME280;5284;50.446;7.904;2022-12-18T12:58:34;99511.72;;;-3.14;100.00
10474;BME280;5284;50.446;7.904;2022-12-18T13:03:46;99500.75;;;-3.35;100.00
10474;BME280;5284;50.446;7.904;2022-12-18T13:08:55;99493.28;;;-3.56;100.00
10474;BME280;5284;50.446;7.904;2022-12-18T13:13:58;99503.44;;;-3.38;100.00
10474;BME280;5284;50.446;7.904;2022-12-18T13:19:03;99500.22;;;-3.57;100.00
10474;BME280;5284;50.446;7.904;2022-12-18T13:24:23;99485.59;;;-3.67;100.00
10474;BME280;5284;50.446;7.904;2022-12-18T13:29:43;99495.09;;;-3.63;100.00
10474;BME280;5284;50.446;7.904;2022-12-18T13:34:46;99487.19;;;-3.55;100.00
10474;BME280;5284;50.446;7.904;2022-12-18T13:39:50;99493.34;;;-3.62;100.00
10474;BME280;5284;50.446;7.904;2022-12-18T13:44:53;99487.38;;;-3.69;100.00
10474;BME280;5284;50.446;7.904;2022-12-18T13:49:56;99485.84;;;-3.85;100.00
10474;BME280;5284;50.446;7.904;2022-12-18T13:55:02;99483.44;;;-4.01;100.00
10474;BME280;5284;50.446;7.904;2022-12-18T14:00:24;99471.19;;;-3.90;100.00
10474;BME280;5284;50.446;7.904;2022-12-18T14:05:36;99473.88;;;-3.98;100.00
10474;BME280;5284;50.446;7.904;2022-12-18T14:10:46;99493.06;;;-4.06;100.00
10474;BME280;5284;50.446;7.904;2022-12-18T14:15:51;99495.88;;;-4.21;100.00
10474;BME280;5284;50.446;7.904;2022-12-18T14:20:58;99493.50;;;-4.44;100.00
10474;BME280;5284;50.446;7.904;2022-12-18T14:26:22;99511.00;;;-4.56;100.00
10474;BME280;5284;50.446;7.904;2022-12-18T14:31:26;99511.75;;;-4.47;100.00
10474;BME280;5284;50.446;7.904;2022-12-18T14:36:30;99491.22;;;-4.76;100.00
10474;BME280;5284;50.446;7.904;2022-12-18T14:41:35;99491.22;;;-4.76;100.00
10474;BME280;5284;50.446;7.904;2022-12-18T14:46:39;99500.84;;;-4.84;100.00
10474;BME280;5284;50.446;7.904;2022-12-18T14:51:47;99497.38;;;-4.82;100.00
10474;BME280;5284;50.446;7.904;2022-12-18T14:56:58;99488.81;;;-4.93;100.00
10474;BME280;5284;50.446;7.904;2022-12-18T15:02:04;99487.97;;;-4.98;100.00
10474;BME280;5284;50.446;7.904;2022-12-18T15:07:14;99479.38;;;-5.04;100.00
10474;BME280;5284;50.446;7.904;2022-12-18T15:12:26;99483.75;;;-5.11;100.00
10474;BME280;5284;50.446;7.904;2022-12-18T15:17:31;99482.88;;;-5.11;100.00
10474;BME280;5284;50.446;7.904;2022-12-18T15:22:35;99476.91;;;-5.18;100.00
10474;BME280;5284;50.446;7.904;2022-12-18T15:27:46;99476.91;;;-5.21;100.00
10474;BME280;5284;50.446;7.904;2022-12-18T15:32:50;99481.28;;;-5.26;100.00
10474;BME280;5284;50.446;7.904;2022-12-18T15:37:54;99470.91;;;-5.27;100.00
10474;BME280;5284;50.446;7.904;2022-12-18T15:42:58;99459.75;;;-5.38;100.00
10474;BME280;5284;50.446;7.904;2022-12-18T15:48:21;99470.13;;;-5.40;100.00
10474;BME280;5284;50.446;7.904;2022-12-18T15:53:28;99474.47;;;-5.40;100.00
10474;BME280;5284;50.446;7.904;2022-12-18T15:58:33;99477.97;;;-5.44;100.00
10474;BME280;5284;50.446;7.904;2022-12-18T16:03:35;99480.56;;;-5.47;100.00
10474;BME280;5284;50.446;7.904;2022-12-18T16:08:39;99478.81;;;-5.45;100.00
10474;BME280;5284;50.446;7.904;2022-12-18T16:13:44;99489.22;;;-5.45;100.00
10474;BME280;5284;50.446;7.904;2022-12-18T16:18:46;99484.97;;;-5.55;100.00
10474;BME280;5284;50.446;7.904;2022-12-18T16:23:49;99467.63;;;-5.53;100.00
10474;BME280;5284;50.446;7.904;2022-12-18T16:28:53;99465.06;;;-5.56;100.00
10474;BME280;5284;50.446;7.904;2022-12-18T16:34:19;99458.13;;;-5.57;100.00
10474;BME280;5284;50.446;7.904;2022-12-18T16:39:25;99448.66;;;-5.61;100.00
10474;BME280;5284;50.446;7.904;2022-12-18T16:44:30;99469.34;;;-5.51;100.00
10474;BME280;5284;50.446;7.904;2022-12-18T16:49:33;99461.59;;;-5.58;100.00
10474;BME280;5284;50.446;7.904;2022-12-18T16:54:35;99456.41;;;-5.57;100.00
10474;BME280;5284;50.446;7.904;2022-12-18T16:59:41;99440.91;;;-5.69;100.00
10474;BME280;5284;50.446;7.904;2022-12-18T17:04:44;99445.19;;;-5.60;100.00
10474;BME280;5284;50.446;7.904;2022-12-18T17:09:49;99426.16;;;-5.62;100.00
10474;BME280;5284;50.446;7.904;2022-12-18T17:14:53;99434.78;;;-5.60;100.00
10474;BME280;5284;50.446;7.904;2022-12-18T17:19:56;99432.19;;;-5.60;100.00
10474;BME280;5284;50.446;7.904;2022-12-18T17:24:59;99422.66;;;-5.57;100.00
10474;BME280;5284;50.446;7.904;2022-12-18T17:30:05;99426.94;;;-5.53;100.00
10474;BME280;5284;50.446;7.904;2022-12-18T17:35:09;99431.25;;;-5.50;100.00
10474;BME280;5284;50.446;7.904;2022-12-18T17:40:13;99422.56;;;-5.48;100.00
10474;BME280;5284;50.446;7.904;2022-12-18T17:45:17;99419.94;;;-5.43;100.00
10474;BME280;5284;50.446;7.904;2022-12-18T17:50:20;99420.78;;;-5.38;100.00
10474;BME280;5284;50.446;7.904;2022-12-18T17:55:23;99425.94;;;-5.35;100.00
10474;BME280;5284;50.446;7.904;2022-12-18T18:00:27;99427.63;;;-5.31;100.00
10474;BME280;5284;50.446;7.904;2022-12-18T18:05:33;99430.22;;;-5.28;100.00
10474;BME280;5284;50.446;7.904;2022-12-18T18:10:36;99425.84;;;-5.25;100.00
10474;BME280;5284;50.446;7.904;2022-12-18T18:15:41;99424.09;;;-5.23;100.00
10474;BME280;5284;50.446;7.904;2022-12-18T18:20:44;99410.22;;;-5.20;100.00
10474;BME280;5284;50.446;7.904;2022-12-18T18:25:46;99408.47;;;-5.20;100.00
10474;BME280;5284;50.446;7.904;2022-12-18T18:30:52;99409.34;;;-5.18;100.00
10474;BME280;5284;50.446;7.904;2022-12-18T18:35:55;99404.09;;;-5.15;100.00
10474;BME280;5284;50.446;7.904;2022-12-18T18:40:58;99389.34;;;-5.14;100.00
10474;BME280;5284;50.446;7.904;2022-12-18T18:46:04;99378.03;;;-5.09;100.00
10474;BME280;5284;50.446;7.904;2022-12-18T18:51:09;99366.78;;;-5.06;100.00
10474;BME280;5284;50.446;7.904;2022-12-18T18:56:17;99366.75;;;-5.05;100.00
10474;BME280;5284;50.446;7.904;2022-12-18T19:01:41;99350.25;;;-5.02;100.00
10474;BME280;5284;50.446;7.904;2022-12-18T19:06:44;99361.47;;;-4.99;100.00
10474;BME280;5284;50.446;7.904;2022-12-18T19:11:50;99358.84;;;-4.96;100.00
10474;BME280;5284;50.446;7.904;2022-12-18T19:17:11;99358.75;;;-4.88;100.00
10474;BME280;5284;50.446;7.904;2022-12-18T19:22:14;99353.53;;;-4.84;100.00
10474;BME280;5284;50.446;7.904;2022-12-18T19:27:17;99347.41;;;-4.80;100.00
10474;BME280;5284;50.446;7.904;2022-12-18T19:32:21;99339.56;;;-4.75;100.00
10474;BME280;5284;50.446;7.904;2022-12-18T19:37:24;99342.91;;;-4.69;100.00
10474;BME280;5284;50.446;7.904;2022-12-18T19:42:27;99329.03;;;-4.66;100.00
10474;BME280;5284;50.446;7.904;2022-12-18T19:47:37;99341.13;;;-4.62;100.00
10474;BME280;5284;50.446;7.904;2022-12-18T19:52:40;99339.34;;;-4.60;100.00
10474;BME280;5284;50.446;7.904;2022-12-18T19:57:43;99335.84;;;-4.56;100.00
10474;BME280;5284;50.446;7.904;2022-12-18T20:02:47;99346.97;;;-4.47;100.00
10474;BME280;5284;50.446;7.904;2022-12-18T20:07:51;99355.59;;;-4.44;100.00
10474;BME280;5284;50.446;7.904;2022-12-18T20:12:54;99363.41;;;-4.44;100.00
10474;BME280;5284;50.446;7.904;2022-12-18T20:17:59;99359.03;;;-4.40;100.00
10474;BME280;5284;50.446;7.904;2022-12-18T20:23:04;99346.00;;;-4.39;100.00
10474;BME280;5284;50.446;7.904;2022-12-18T20:28:07;99342.53;;;-4.38;100.00
10474;BME280;5284;50.446;7.904;2022-12-18T20:33:11;99338.22;;;-4.40;100.00
10474;BME280;5284;50.446;7.904;2022-12-18T20:38:14;99324.22;;;-4.33;100.00
10474;BME280;5284;50.446;7.904;2022-12-18T20:43:18;99325.00;;;-4.27;100.00
10474;BME280;5284;50.446;7.904;2022-12-18T20:48:22;99338.88;;;-4.26;100.00
10474;BME280;5284;50.446;7.904;2022-12-18T20:53:27;99339.66;;;-4.20;100.00
10474;BME280;5284;50.446;7.904;2022-12-18T20:58:30;99337.88;;;-4.18;100.00
10474;BME280;5284;50.446;7.904;2022-12-18T21:03:34;99328.25;;;-4.11;100.00
10474;BME280;5284;50.446;7.904;2022-12-18T21:08:37;99329.03;;;-4.06;100.00
10474;BME280;5284;50.446;7.904;2022-12-18T21:13:40;99333.47;;;-4.11;100.00
10474;BME280;5284;50.446;7.904;2022-12-18T21:18:44;99347.25;;;-4.05;100.00
10474;BME280;5284;50.446;7.904;2022-12-18T21:23:47;99340.34;;;-4.06;100.00
10474;BME280;5284;50.446;7.904;2022-12-18T21:28:52;99339.38;;;-4.00;100.00
10474;BME280;5284;50.446;7.904;2022-12-18T21:33:57;99350.63;;;-3.98;100.00
10474;BME280;5284;50.446;7.904;2022-12-18T21:39:03;99341.03;;;-3.96;100.00
10474;BME280;5284;50.446;7.904;2022-12-18T21:44:06;99332.28;;;-3.89;100.00
10474;BME280;5284;50.446;7.904;2022-12-18T21:49:12;99328.75;;;-3.87;100.00
10474;BME280;5284;50.446;7.904;2022-12-18T21:54:18;99323.47;;;-3.84;100.00
10474;BME280;5284;50.446;7.904;2022-12-18T21:59:22;99324.31;;;-3.82;100.00
10474;BME280;5284;50.446;7.904;2022-12-18T22:04:28;99326.88;;;-3.79;100.00
10474;BME280;5284;50.446;7.904;2022-12-18T22:09:31;99325.97;;;-3.76;100.00
10474;BME280;5284;50.446;7.904;2022-12-18T22:14:35;99326.81;;;-3.76;100.00
10474;BME280;5284;50.446;7.904;2022-12-18T22:19:39;99318.09;;;-3.73;100.00
10474;BME280;5284;50.446;7.904;2022-12-18T22:24:44;99319.78;;;-3.69;100.00
10474;BME280;5284;50.446;7.904;2022-12-18T22:29:46;99312.78;;;-3.66;100.00
10474;BME280;5284;50.446;7.904;2022-12-18T22:35:09;99311.84;;;-3.62;100.00
10474;BME280;5284;50.446;7.904;2022-12-18T22:40:18;99297.94;;;-3.61;100.00
10474;BME280;5284;50.446;7.904;2022-12-18T22:45:26;99301.31;;;-3.57;100.00
10474;BME280;5284;50.446;7.904;2022-12-18T22:50:30;99299.59;;;-3.57;100.00
10474;BME280;5284;50.446;7.904;2022-12-18T22:55:34;99286.50;;;-3.52;100.00
10474;BME280;5284;50.446;7.904;2022-12-18T23:00:37;99293.31;;;-3.47;100.00
10474;BME280;5284;50.446;7.904;2022-12-18T23:05:41;99297.81;;;-3.53;100.00
10474;BME280;5284;50.446;7.904;2022-12-18T23:10:44;99283.84;;;-3.51;100.00
10474;BME280;5284;50.446;7.904;2022-12-18T23:15:47;99273.38;;;-3.48;100.00
10474;BME280;5284;50.446;7.904;2022-12-18T23:20:51;99265.47;;;-3.45;100.00
10474;BME280;5284;50.446;7.904;2022-12-18T23:25:59;99263.75;;;-3.44;100.00
10474;BME280;5284;50.446;7.904;2022-12-18T23:31:04;99261.06;;;-3.40;100.00
10474;BME280;5284;50.446;7.904;2022-12-18T23:36:09;99257.53;;;-3.37;100.00
10474;BME280;5284;50.446;7.904;2022-12-18T23:41:14;99255.81;;;-3.37;100.00
10474;BME280;5284;50.446;7.904;2022-12-18T23:46:18;99247.88;;;-3.32;100.00
10474;BME280;5284;50.446;7.904;2022-12-18T23:51:23;99256.47;;;-3.27;100.00
10474;BME280;5284;50.446;7.904;2022-12-18T23:56:27;99256.41;;;-3.24;100.00
